sensor_id;sensor_type;location;lat;lon;timestamp;temperature;humidity
52643;DHT22;38531;53.296;6.614;2022-09-09T00:00:24;14.90;99.90
52643;DHT22;38531;53.296;6.614;2022-09-09T00:03:14;15.20;99.90
52643;DHT22;38531;53.296;6.614;2022-09-09T00:06:05;14.80;99.90
52643;DHT22;38531;53.296;6.614;2022-09-09T00:11:28;14.80;99.90
52643;DHT22;38531;53.296;6.614;2022-09-09T00:13:56;14.70;99.90
52643;DHT22;38531;53.296;6.614;2022-09-09T00:16:25;14.70;99.90
52643;DHT22;38531;53.296;6.614;2022-09-09T00:24:38;14.60;99.90
52643;DHT22;38531;53.296;6.614;2022-09-09T00:30:15;14.50;99.90
52643;DHT22;38531;53.296;6.614;2022-09-09T00:32:44;14.40;99.90
52643;DHT22;38531;53.296;6.614;2022-09-09T00:35:14;14.30;99.90
52643;DHT22;38531;53.296;6.614;2022-09-09T00:37:42;14.30;99.90
52643;DHT22;38531;53.296;6.614;2022-09-09T00:40:35;14.30;99.90
52643;DHT22;38531;53.296;6.614;2022-09-09T00:46:05;14.20;99.90
52643;DHT22;38531;53.296;6.614;2022-09-09T00:56:51;14.10;99.90
52643;DHT22;38531;53.296;6.614;2022-09-09T00:59:24;14.10;99.90
52643;DHT22;38531;53.296;6.614;2022-09-09T01:01:53;14.70;99.90
52643;DHT22;38531;53.296;6.614;2022-09-09T01:04:28;14.90;99.90
52643;DHT22;38531;53.296;6.614;2022-09-09T01:07:11;13.90;99.90
52643;DHT22;38531;53.296;6.614;2022-09-09T01:10:09;14.00;99.90
52643;DHT22;38531;53.296;6.614;2022-09-09T01:12:47;14.00;99.90
52643;DHT22;38531;53.296;6.614;2022-09-09T01:15:26;13.90;99.90
52643;DHT22;38531;53.296;6.614;2022-09-09T01:28:37;13.80;99.90
52643;DHT22;38531;53.296;6.614;2022-09-09T01:31:09;14.50;99.90
52643;DHT22;38531;53.296;6.614;2022-09-09T01:33:36;13.80;99.90
52643;DHT22;38531;53.296;6.614;2022-09-09T01:36:08;14.50;99.90
52643;DHT22;38531;53.296;6.614;2022-09-09T01:38:34;13.70;99.90
52643;DHT22;38531;53.296;6.614;2022-09-09T01:41:01;13.70;99.90
52643;DHT22;38531;53.296;6.614;2022-09-09T01:43:28;14.30;99.90
52643;DHT22;38531;53.296;6.614;2022-09-09T01:45:56;13.60;99.90
52643;DHT22;38531;53.296;6.614;2022-09-09T01:48:25;13.70;99.90
52643;DHT22;38531;53.296;6.614;2022-09-09T01:50:51;13.80;99.90
52643;DHT22;38531;53.296;6.614;2022-09-09T01:53:18;13.60;99.90
52643;DHT22;38531;53.296;6.614;2022-09-09T01:56:18;13.60;99.90
52643;DHT22;38531;53.296;6.614;2022-09-09T01:58:52;13.60;99.90
52643;DHT22;38531;53.296;6.614;2022-09-09T02:07:06;13.50;99.90
52643;DHT22;38531;53.296;6.614;2022-09-09T02:09:36;13.50;99.90
52643;DHT22;38531;53.296;6.614;2022-09-09T02:12:12;13.50;99.90
52643;DHT22;38531;53.296;6.614;2022-09-09T02:14:40;13.50;99.90
52643;DHT22;38531;53.296;6.614;2022-09-09T02:17:11;13.40;99.90
52643;DHT22;38531;53.296;6.614;2022-09-09T02:19:45;13.30;99.90
52643;DHT22;38531;53.296;6.614;2022-09-09T02:22:17;13.30;99.90
52643;DHT22;38531;53.296;6.614;2022-09-09T02:24:43;13.30;99.90
52643;DHT22;38531;53.296;6.614;2022-09-09T02:27:10;13.30;99.90
52643;DHT22;38531;53.296;6.614;2022-09-09T02:29:40;13.30;99.90
52643;DHT22;38531;53.296;6.614;2022-09-09T02:32:15;13.10;99.90
52643;DHT22;38531;53.296;6.614;2022-09-09T02:34:49;13.30;99.90
52643;DHT22;38531;53.296;6.614;2022-09-09T02:37:18;13.30;99.90
52643;DHT22;38531;53.296;6.614;2022-09-09T02:39:46;13.20;99.90
52643;DHT22;38531;53.296;6.614;2022-09-09T02:42:12;13.30;99.90
52643;DHT22;38531;53.296;6.614;2022-09-09T02:44:40;13.80;99.90
52643;DHT22;38531;53.296;6.614;2022-09-09T02:47:25;13.40;99.90
52643;DHT22;38531;53.296;6.614;2022-09-09T02:55:16;13.30;99.90
52643;DHT22;38531;53.296;6.614;2022-09-09T02:57:45;13.40;99.90
52643;DHT22;38531;53.296;6.614;2022-09-09T03:00:13;13.40;99.90
52643;DHT22;38531;53.296;6.614;2022-09-09T03:02:39;13.50;99.90
52643;DHT22;38531;53.296;6.614;2022-09-09T03:05:06;13.50;99.90
52643;DHT22;38531;53.296;6.614;2022-09-09T03:07:32;13.50;99.90
52643;DHT22;38531;53.296;6.614;2022-09-09T03:09:58;13.60;99.90
52643;DHT22;38531;53.296;6.614;2022-09-09T03:12:24;13.70;99.90
52643;DHT22;38531;53.296;6.614;2022-09-09T03:14:49;13.70;99.90
52643;DHT22;38531;53.296;6.614;2022-09-09T03:17:15;13.90;99.90
52643;DHT22;38531;53.296;6.614;2022-09-09T03:19:42;13.80;99.90
52643;DHT22;38531;53.296;6.614;2022-09-09T03:22:10;14.10;99.90
52643;DHT22;38531;53.296;6.614;2022-09-09T03:24:36;13.90;99.90
52643;DHT22;38531;53.296;6.614;2022-09-09T03:27:02;13.90;99.90
52643;DHT22;38531;53.296;6.614;2022-09-09T03:29:28;14.00;99.90
52643;DHT22;38531;53.296;6.614;2022-09-09T03:31:54;13.70;99.90
52643;DHT22;38531;53.296;6.614;2022-09-09T03:34:20;14.00;99.90
52643;DHT22;38531;53.296;6.614;2022-09-09T03:36:46;14.10;99.90
52643;DHT22;38531;53.296;6.614;2022-09-09T03:39:11;14.80;99.90
52643;DHT22;38531;53.296;6.614;2022-09-09T03:41:37;14.60;99.90
52643;DHT22;38531;53.296;6.614;2022-09-09T03:44:03;14.90;99.90
52643;DHT22;38531;53.296;6.614;2022-09-09T03:46:29;14.20;99.90
52643;DHT22;38531;53.296;6.614;2022-09-09T03:48:55;14.20;99.90
52643;DHT22;38531;53.296;6.614;2022-09-09T03:51:21;14.20;99.90
52643;DHT22;38531;53.296;6.614;2022-09-09T03:53:47;14.90;99.90
52643;DHT22;38531;53.296;6.614;2022-09-09T03:56:13;14.30;99.90
52643;DHT22;38531;53.296;6.614;2022-09-09T03:58:38;14.20;99.90
52643;DHT22;38531;53.296;6.614;2022-09-09T04:01:14;14.30;99.90
52643;DHT22;38531;53.296;6.614;2022-09-09T04:03:42;14.30;99.90
52643;DHT22;38531;53.296;6.614;2022-09-09T04:06:09;14.40;99.90
52643;DHT22;38531;53.296;6.614;2022-09-09T04:08:36;14.30;99.90
52643;DHT22;38531;53.296;6.614;2022-09-09T04:11:04;14.30;99.90
52643;DHT22;38531;53.296;6.614;2022-09-09T04:13:35;14.30;99.90
52643;DHT22;38531;53.296;6.614;2022-09-09T04:16:03;14.40;99.90
52643;DHT22;38531;53.296;6.614;2022-09-09T04:18:29;14.40;99.90
52643;DHT22;38531;53.296;6.614;2022-09-09T04:20:56;14.40;99.90
52643;DHT22;38531;53.296;6.614;2022-09-09T04:23:26;14.40;99.90
52643;DHT22;38531;53.296;6.614;2022-09-09T04:25:55;14.40;99.90
52643;DHT22;38531;53.296;6.614;2022-09-09T04:28:23;14.40;99.90
52643;DHT22;38531;53.296;6.614;2022-09-09T04:30:49;14.60;99.90
52643;DHT22;38531;53.296;6.614;2022-09-09T04:33:15;14.50;99.90
52643;DHT22;38531;53.296;6.614;2022-09-09T04:35:49;14.50;99.90
52643;DHT22;38531;53.296;6.614;2022-09-09T04:38:16;14.50;99.90
52643;DHT22;38531;53.296;6.614;2022-09-09T04:40:43;14.50;99.90
52643;DHT22;38531;53.296;6.614;2022-09-09T04:43:09;14.60;99.90
52643;DHT22;38531;53.296;6.614;2022-09-09T04:45:35;14.60;99.90
52643;DHT22;38531;53.296;6.614;2022-09-09T04:48:06;14.70;99.90
52643;DHT22;38531;53.296;6.614;2022-09-09T04:50:31;14.60;99.90
52643;DHT22;38531;53.296;6.614;2022-09-09T04:53:00;14.60;99.90
52643;DHT22;38531;53.296;6.614;2022-09-09T04:55:26;14.60;99.90
52643;DHT22;38531;53.296;6.614;2022-09-09T04:57:52;15.20;99.90
52643;DHT22;38531;53.296;6.614;2022-09-09T05:00:19;14.70;99.90
52643;DHT22;38531;53.296;6.614;2022-09-09T05:02:45;14.80;99.90
52643;DHT22;38531;53.296;6.614;2022-09-09T05:05:11;14.30;99.90
52643;DHT22;38531;53.296;6.614;2022-09-09T05:07:37;14.70;99.90
52643;DHT22;38531;53.296;6.614;2022-09-09T05:10:03;14.70;99.90
52643;DHT22;38531;53.296;6.614;2022-09-09T05:12:30;14.60;99.90
52643;DHT22;38531;53.296;6.614;2022-09-09T05:14:56;14.60;99.90
52643;DHT22;38531;53.296;6.614;2022-09-09T05:17:23;14.70;99.90
52643;DHT22;38531;53.296;6.614;2022-09-09T05:19:48;14.60;99.90
52643;DHT22;38531;53.296;6.614;2022-09-09T05:22:19;15.00;99.90
52643;DHT22;38531;53.296;6.614;2022-09-09T05:24:45;15.40;99.90
52643;DHT22;38531;53.296;6.614;2022-09-09T05:27:11;14.60;99.90
52643;DHT22;38531;53.296;6.614;2022-09-09T05:29:38;14.70;99.90
52643;DHT22;38531;53.296;6.614;2022-09-09T05:32:04;14.60;99.90
52643;DHT22;38531;53.296;6.614;2022-09-09T05:34:30;14.70;99.90
52643;DHT22;38531;53.296;6.614;2022-09-09T05:36:56;14.60;99.90
52643;DHT22;38531;53.296;6.614;2022-09-09T05:39:21;14.70;99.90
52643;DHT22;38531;53.296;6.614;2022-09-09T05:41:47;15.00;99.90
52643;DHT22;38531;53.296;6.614;2022-09-09T05:44:13;14.70;99.90
52643;DHT22;38531;53.296;6.614;2022-09-09T05:46:39;14.70;99.90
52643;DHT22;38531;53.296;6.614;2022-09-09T05:49:05;14.70;99.90
52643;DHT22;38531;53.296;6.614;2022-09-09T05:51:31;14.70;99.90
52643;DHT22;38531;53.296;6.614;2022-09-09T05:53:57;14.70;99.90
52643;DHT22;38531;53.296;6.614;2022-09-09T05:56:27;14.70;99.90
52643;DHT22;38531;53.296;6.614;2022-09-09T05:58:55;14.80;99.90
52643;DHT22;38531;53.296;6.614;2022-09-09T06:01:25;14.70;99.90
52643;DHT22;38531;53.296;6.614;2022-09-09T06:03:52;14.80;99.90
52643;DHT22;38531;53.296;6.614;2022-09-09T06:06:20;14.80;99.90
52643;DHT22;38531;53.296;6.614;2022-09-09T06:08:47;14.80;99.90
52643;DHT22;38531;53.296;6.614;2022-09-09T06:11:17;15.40;99.90
52643;DHT22;38531;53.296;6.614;2022-09-09T06:13:43;14.80;99.90
52643;DHT22;38531;53.296;6.614;2022-09-09T06:16:11;14.80;99.90
52643;DHT22;38531;53.296;6.614;2022-09-09T06:18:38;14.80;99.90
52643;DHT22;38531;53.296;6.614;2022-09-09T06:21:05;14.80;99.90
52643;DHT22;38531;53.296;6.614;2022-09-09T06:23:35;14.80;99.90
52643;DHT22;38531;53.296;6.614;2022-09-09T06:26:12;14.90;99.90
52643;DHT22;38531;53.296;6.614;2022-09-09T06:28:38;14.90;99.90
52643;DHT22;38531;53.296;6.614;2022-09-09T06:31:09;14.90;99.90
52643;DHT22;38531;53.296;6.614;2022-09-09T06:33:40;15.00;99.90
52643;DHT22;38531;53.296;6.614;2022-09-09T06:36:10;15.00;99.90
52643;DHT22;38531;53.296;6.614;2022-09-09T06:38:36;15.00;99.90
52643;DHT22;38531;53.296;6.614;2022-09-09T06:41:02;15.00;99.90
52643;DHT22;38531;53.296;6.614;2022-09-09T06:43:28;15.10;99.90
52643;DHT22;38531;53.296;6.614;2022-09-09T06:45:59;15.20;99.90
52643;DHT22;38531;53.296;6.614;2022-09-09T06:48:26;15.00;99.90
52643;DHT22;38531;53.296;6.614;2022-09-09T06:51:07;15.20;99.90
52643;DHT22;38531;53.296;6.614;2022-09-09T06:53:35;15.20;99.90
52643;DHT22;38531;53.296;6.614;2022-09-09T06:56:21;15.20;99.90
52643;DHT22;38531;53.296;6.614;2022-09-09T06:58:49;15.20;99.90
52643;DHT22;38531;53.296;6.614;2022-09-09T07:01:17;15.30;99.90
52643;DHT22;38531;53.296;6.614;2022-09-09T07:03:47;15.40;99.90
52643;DHT22;38531;53.296;6.614;2022-09-09T07:06:19;15.40;99.90
52643;DHT22;38531;53.296;6.614;2022-09-09T07:08:53;15.40;99.90
52643;DHT22;38531;53.296;6.614;2022-09-09T07:11:21;15.50;99.90
52643;DHT22;38531;53.296;6.614;2022-09-09T07:13:48;15.60;99.90
52643;DHT22;38531;53.296;6.614;2022-09-09T07:16:16;15.70;99.90
52643;DHT22;38531;53.296;6.614;2022-09-09T07:18:43;15.80;99.90
52643;DHT22;38531;53.296;6.614;2022-09-09T07:21:10;16.00;99.90
52643;DHT22;38531;53.296;6.614;2022-09-09T07:23:37;15.90;99.90
52643;DHT22;38531;53.296;6.614;2022-09-09T07:26:09;16.00;99.90
52643;DHT22;38531;53.296;6.614;2022-09-09T07:28:35;16.10;99.90
52643;DHT22;38531;53.296;6.614;2022-09-09T07:31:01;16.20;99.90
52643;DHT22;38531;53.296;6.614;2022-09-09T07:33:28;16.20;99.90
52643;DHT22;38531;53.296;6.614;2022-09-09T07:36:09;16.10;99.90
52643;DHT22;38531;53.296;6.614;2022-09-09T07:38:58;16.30;99.90
52643;DHT22;38531;53.296;6.614;2022-09-09T07:41:25;16.40;99.90
52643;DHT22;38531;53.296;6.614;2022-09-09T07:43:52;16.40;99.90
52643;DHT22;38531;53.296;6.614;2022-09-09T07:46:20;16.50;99.90
52643;DHT22;38531;53.296;6.614;2022-09-09T07:48:49;16.50;99.90
52643;DHT22;38531;53.296;6.614;2022-09-09T07:51:20;16.60;99.90
52643;DHT22;38531;53.296;6.614;2022-09-09T07:53:50;16.70;99.90
52643;DHT22;38531;53.296;6.614;2022-09-09T07:56:17;16.70;99.90
52643;DHT22;38531;53.296;6.614;2022-09-09T07:58:46;16.80;99.90
52643;DHT22;38531;53.296;6.614;2022-09-09T08:01:21;16.80;99.90
52643;DHT22;38531;53.296;6.614;2022-09-09T08:03:56;16.80;99.90
52643;DHT22;38531;53.296;6.614;2022-09-09T08:06:25;17.00;99.90
52643;DHT22;38531;53.296;6.614;2022-09-09T08:08:52;17.00;99.90
52643;DHT22;38531;53.296;6.614;2022-09-09T08:11:18;17.10;99.90
52643;DHT22;38531;53.296;6.614;2022-09-09T08:13:44;17.20;99.90
52643;DHT22;38531;53.296;6.614;2022-09-09T08:16:18;17.30;99.90
52643;DHT22;38531;53.296;6.614;2022-09-09T08:18:43;17.40;99.90
52643;DHT22;38531;53.296;6.614;2022-09-09T08:21:15;17.40;99.90
52643;DHT22;38531;53.296;6.614;2022-09-09T08:23:43;17.50;99.90
52643;DHT22;38531;53.296;6.614;2022-09-09T08:26:16;17.60;99.90
52643;DHT22;38531;53.296;6.614;2022-09-09T08:28:43;17.60;99.90
52643;DHT22;38531;53.296;6.614;2022-09-09T08:31:15;17.70;99.90
52643;DHT22;38531;53.296;6.614;2022-09-09T08:33:42;17.80;99.90
52643;DHT22;38531;53.296;6.614;2022-09-09T08:36:12;17.90;99.90
52643;DHT22;38531;53.296;6.614;2022-09-09T08:38:41;18.00;99.90
52643;DHT22;38531;53.296;6.614;2022-09-09T08:41:41;18.00;99.90
52643;DHT22;38531;53.296;6.614;2022-09-09T08:52:37;18.30;99.90
52643;DHT22;38531;53.296;6.614;2022-09-09T08:55:26;18.40;99.90
52643;DHT22;38531;53.296;6.614;2022-09-09T08:57:56;18.50;99.90
52643;DHT22;38531;53.296;6.614;2022-09-09T09:00:23;18.60;99.90
52643;DHT22;38531;53.296;6.614;2022-09-09T09:05:59;18.80;99.90
52643;DHT22;38531;53.296;6.614;2022-09-09T09:11:00;19.00;99.90
52643;DHT22;38531;53.296;6.614;2022-09-09T09:13:42;19.00;99.90
52643;DHT22;38531;53.296;6.614;2022-09-09T09:16:34;19.00;99.90
52643;DHT22;38531;53.296;6.614;2022-09-09T09:19:03;19.10;99.90
52643;DHT22;38531;53.296;6.614;2022-09-09T09:21:53;19.10;99.90
52643;DHT22;38531;53.296;6.614;2022-09-09T09:26:50;19.30;99.90
52643;DHT22;38531;53.296;6.614;2022-09-09T09:29:18;19.40;99.90
52643;DHT22;38531;53.296;6.614;2022-09-09T09:31:54;19.50;99.90
52643;DHT22;38531;53.296;6.614;2022-09-09T09:34:21;19.50;99.90
52643;DHT22;38531;53.296;6.614;2022-09-09T09:36:53;19.50;99.90
52643;DHT22;38531;53.296;6.614;2022-09-09T09:39:28;19.40;99.90
52643;DHT22;38531;53.296;6.614;2022-09-09T09:41:54;19.50;99.90
52643;DHT22;38531;53.296;6.614;2022-09-09T09:46:50;19.50;99.90
52643;DHT22;38531;53.296;6.614;2022-09-09T09:49:16;19.60;99.90
52643;DHT22;38531;53.296;6.614;2022-09-09T09:51:43;19.50;99.90
52643;DHT22;38531;53.296;6.614;2022-09-09T09:54:38;19.60;99.90
52643;DHT22;38531;53.296;6.614;2022-09-09T09:57:30;19.80;99.90
52643;DHT22;38531;53.296;6.614;2022-09-09T10:02:39;20.00;99.90
52643;DHT22;38531;53.296;6.614;2022-09-09T10:05:25;20.20;99.90
52643;DHT22;38531;53.296;6.614;2022-09-09T10:08:11;20.20;99.90
52643;DHT22;38531;53.296;6.614;2022-09-09T10:19:00;20.70;99.90
52643;DHT22;38531;53.296;6.614;2022-09-09T10:24:21;20.60;99.90
52643;DHT22;38531;53.296;6.614;2022-09-09T10:27:11;20.50;99.90
52643;DHT22;38531;53.296;6.614;2022-09-09T10:41:09;20.40;99.90
52643;DHT22;38531;53.296;6.614;2022-09-09T10:56:21;20.40;99.90
52643;DHT22;38531;53.296;6.614;2022-09-09T10:59:15;20.30;99.90
52643;DHT22;38531;53.296;6.614;2022-09-09T11:04:40;20.20;99.90
52643;DHT22;38531;53.296;6.614;2022-09-09T11:07:11;20.10;99.90
52643;DHT22;38531;53.296;6.614;2022-09-09T11:09:43;20.10;99.90
52643;DHT22;38531;53.296;6.614;2022-09-09T11:12:15;20.00;99.90
52643;DHT22;38531;53.296;6.614;2022-09-09T11:17:40;19.90;99.90
52643;DHT22;38531;53.296;6.614;2022-09-09T11:20:12;20.10;99.90
52643;DHT22;38531;53.296;6.614;2022-09-09T11:22:52;20.40;99.90
52643;DHT22;38531;53.296;6.614;2022-09-09T11:25:38;20.70;99.90
52643;DHT22;38531;53.296;6.614;2022-09-09T11:31:14;20.90;99.90
52643;DHT22;38531;53.296;6.614;2022-09-09T11:41:48;21.40;99.90
52643;DHT22;38531;53.296;6.614;2022-09-09T11:44:28;21.60;99.90
52643;DHT22;38531;53.296;6.614;2022-09-09T11:46:55;21.80;99.90
52643;DHT22;38531;53.296;6.614;2022-09-09T11:49:40;22.10;99.90
52643;DHT22;38531;53.296;6.614;2022-09-09T11:52:22;22.20;99.90
52643;DHT22;38531;53.296;6.614;2022-09-09T11:54:49;22.30;99.90
52643;DHT22;38531;53.296;6.614;2022-09-09T11:57:36;22.20;99.90
52643;DHT22;38531;53.296;6.614;2022-09-09T12:00:03;22.40;99.90
52643;DHT22;38531;53.296;6.614;2022-09-09T12:02:29;22.50;99.90
52643;DHT22;38531;53.296;6.614;2022-09-09T12:05:06;22.50;99.90
52643;DHT22;38531;53.296;6.614;2022-09-09T12:07:57;22.40;99.90
52643;DHT22;38531;53.296;6.614;2022-09-09T12:10:30;22.20;99.90
52643;DHT22;38531;53.296;6.614;2022-09-09T12:13:20;22.00;99.90
52643;DHT22;38531;53.296;6.614;2022-09-09T12:15:58;21.90;99.90
52643;DHT22;38531;53.296;6.614;2022-09-09T12:18:31;22.20;99.90
52643;DHT22;38531;53.296;6.614;2022-09-09T12:23:53;22.70;99.90
52643;DHT22;38531;53.296;6.614;2022-09-09T12:26:37;22.60;99.90
52643;DHT22;38531;53.296;6.614;2022-09-09T12:29:12;22.40;99.90
52643;DHT22;38531;53.296;6.614;2022-09-09T12:32:11;22.20;99.90
52643;DHT22;38531;53.296;6.614;2022-09-09T12:34:40;22.20;99.90
52643;DHT22;38531;53.296;6.614;2022-09-09T12:39:55;22.30;99.90
52643;DHT22;38531;53.296;6.614;2022-09-09T12:42:22;22.30;99.90
52643;DHT22;38531;53.296;6.614;2022-09-09T12:44:56;22.30;99.90
52643;DHT22;38531;53.296;6.614;2022-09-09T12:47:29;22.40;99.90
52643;DHT22;38531;53.296;6.614;2022-09-09T12:49:56;22.40;99.90
52643;DHT22;38531;53.296;6.614;2022-09-09T12:52:36;22.50;99.90
52643;DHT22;38531;53.296;6.614;2022-09-09T12:55:04;22.50;99.90
52643;DHT22;38531;53.296;6.614;2022-09-09T12:57:35;22.40;99.90
52643;DHT22;38531;53.296;6.614;2022-09-09T13:00:22;22.20;99.90
52643;DHT22;38531;53.296;6.614;2022-09-09T13:02:53;22.10;99.90
52643;DHT22;38531;53.296;6.614;2022-09-09T13:05:39;22.00;99.90
52643;DHT22;38531;53.296;6.614;2022-09-09T13:08:06;21.90;99.90
52643;DHT22;38531;53.296;6.614;2022-09-09T13:10:41;22.10;99.90
52643;DHT22;38531;53.296;6.614;2022-09-09T13:13:16;22.30;99.90
52643;DHT22;38531;53.296;6.614;2022-09-09T13:15:53;22.40;99.90
52643;DHT22;38531;53.296;6.614;2022-09-09T13:18:23;22.60;99.90
52643;DHT22;38531;53.296;6.614;2022-09-09T13:20:51;22.60;99.90
52643;DHT22;38531;53.296;6.614;2022-09-09T13:23:19;22.70;99.90
52643;DHT22;38531;53.296;6.614;2022-09-09T13:28:31;23.00;99.90
52643;DHT22;38531;53.296;6.614;2022-09-09T13:31:03;23.20;99.90
52643;DHT22;38531;53.296;6.614;2022-09-09T13:33:33;23.40;99.90
52643;DHT22;38531;53.296;6.614;2022-09-09T13:38:32;23.70;99.90
52643;DHT22;38531;53.296;6.614;2022-09-09T13:41:08;23.60;99.90
52643;DHT22;38531;53.296;6.614;2022-09-09T13:43:43;23.50;99.90
52643;DHT22;38531;53.296;6.614;2022-09-09T13:46:36;23.40;99.90
52643;DHT22;38531;53.296;6.614;2022-09-09T13:51:37;23.20;99.90
52643;DHT22;38531;53.296;6.614;2022-09-09T13:54:05;23.30;99.90
52643;DHT22;38531;53.296;6.614;2022-09-09T13:56:33;23.50;99.90
52643;DHT22;38531;53.296;6.614;2022-09-09T13:59:01;23.40;99.90
52643;DHT22;38531;53.296;6.614;2022-09-09T14:01:27;23.30;99.90
52643;DHT22;38531;53.296;6.614;2022-09-09T14:03:53;23.20;99.90
52643;DHT22;38531;53.296;6.614;2022-09-09T14:06:19;23.00;99.90
52643;DHT22;38531;53.296;6.614;2022-09-09T14:08:48;22.70;99.90
52643;DHT22;38531;53.296;6.614;2022-09-09T14:11:15;22.60;99.90
52643;DHT22;38531;53.296;6.614;2022-09-09T14:13:40;22.50;99.90
52643;DHT22;38531;53.296;6.614;2022-09-09T14:16:06;22.30;99.90
52643;DHT22;38531;53.296;6.614;2022-09-09T14:18:32;22.30;99.90
52643;DHT22;38531;53.296;6.614;2022-09-09T14:20:57;22.20;99.90
52643;DHT22;38531;53.296;6.614;2022-09-09T14:23:24;22.30;99.90
52643;DHT22;38531;53.296;6.614;2022-09-09T14:25:56;22.60;99.90
52643;DHT22;38531;53.296;6.614;2022-09-09T14:28:25;23.00;99.90
52643;DHT22;38531;53.296;6.614;2022-09-09T14:30:51;23.20;99.90
52643;DHT22;38531;53.296;6.614;2022-09-09T14:33:16;23.20;99.90
52643;DHT22;38531;53.296;6.614;2022-09-09T14:35:43;22.90;99.90
52643;DHT22;38531;53.296;6.614;2022-09-09T14:38:10;22.70;99.90
52643;DHT22;38531;53.296;6.614;2022-09-09T14:40:37;22.50;99.90
52643;DHT22;38531;53.296;6.614;2022-09-09T14:43:04;22.30;99.90
52643;DHT22;38531;53.296;6.614;2022-09-09T14:45:31;22.20;99.90
52643;DHT22;38531;53.296;6.614;2022-09-09T14:47:57;22.10;99.90
52643;DHT22;38531;53.296;6.614;2022-09-09T14:50:23;21.90;99.90
52643;DHT22;38531;53.296;6.614;2022-09-09T14:52:49;21.80;99.90
52643;DHT22;38531;53.296;6.614;2022-09-09T14:55:19;21.60;99.90
52643;DHT22;38531;53.296;6.614;2022-09-09T14:57:45;21.50;99.90
52643;DHT22;38531;53.296;6.614;2022-09-09T15:00:13;21.40;99.90
52643;DHT22;38531;53.296;6.614;2022-09-09T15:02:46;21.30;99.90
52643;DHT22;38531;53.296;6.614;2022-09-09T15:18:04;20.30;99.90
52643;DHT22;38531;53.296;6.614;2022-09-09T15:20:52;20.20;99.90
52643;DHT22;38531;53.296;6.614;2022-09-09T15:23:18;20.10;99.90
52643;DHT22;38531;53.296;6.614;2022-09-09T15:25:56;20.00;99.90
52643;DHT22;38531;53.296;6.614;2022-09-09T15:32:10;20.00;99.90
52643;DHT22;38531;53.296;6.614;2022-09-09T15:37:11;20.10;99.90
52643;DHT22;38531;53.296;6.614;2022-09-09T15:39:40;20.10;99.90
52643;DHT22;38531;53.296;6.614;2022-09-09T15:42:06;20.10;99.90
52643;DHT22;38531;53.296;6.614;2022-09-09T15:44:41;20.10;99.90
52643;DHT22;38531;53.296;6.614;2022-09-09T15:47:09;20.00;99.90
52643;DHT22;38531;53.296;6.614;2022-09-09T15:49:35;19.90;99.90
52643;DHT22;38531;53.296;6.614;2022-09-09T15:52:02;19.90;99.90
52643;DHT22;38531;53.296;6.614;2022-09-09T15:54:32;19.80;99.90
52643;DHT22;38531;53.296;6.614;2022-09-09T15:57:03;19.80;99.90
52643;DHT22;38531;53.296;6.614;2022-09-09T15:59:30;19.70;99.90
52643;DHT22;38531;53.296;6.614;2022-09-09T16:01:57;19.80;99.90
52643;DHT22;38531;53.296;6.614;2022-09-09T16:04:24;19.60;99.90
52643;DHT22;38531;53.296;6.614;2022-09-09T16:06:55;19.50;99.90
52643;DHT22;38531;53.296;6.614;2022-09-09T16:09:38;19.40;99.90
52643;DHT22;38531;53.296;6.614;2022-09-09T16:12:15;19.50;99.90
52643;DHT22;38531;53.296;6.614;2022-09-09T16:14:41;19.40;99.90
52643;DHT22;38531;53.296;6.614;2022-09-09T16:17:07;19.30;99.90
52643;DHT22;38531;53.296;6.614;2022-09-09T16:19:33;19.30;99.90
52643;DHT22;38531;53.296;6.614;2022-09-09T16:22:37;19.20;99.90
52643;DHT22;38531;53.296;6.614;2022-09-09T16:25:31;19.30;99.90
52643;DHT22;38531;53.296;6.614;2022-09-09T16:28:02;19.20;99.90
52643;DHT22;38531;53.296;6.614;2022-09-09T16:34:32;19.20;99.90
52643;DHT22;38531;53.296;6.614;2022-09-09T16:37:26;19.10;99.90
52643;DHT22;38531;53.296;6.614;2022-09-09T16:39:55;18.90;99.90
52643;DHT22;38531;53.296;6.614;2022-09-09T16:42:37;18.80;99.90
52643;DHT22;38531;53.296;6.614;2022-09-09T16:45:06;18.80;99.90
52643;DHT22;38531;53.296;6.614;2022-09-09T16:47:32;18.70;99.90
52643;DHT22;38531;53.296;6.614;2022-09-09T16:50:14;18.60;99.90
52643;DHT22;38531;53.296;6.614;2022-09-09T16:52:40;18.50;99.90
52643;DHT22;38531;53.296;6.614;2022-09-09T16:55:08;18.50;99.90
52643;DHT22;38531;53.296;6.614;2022-09-09T16:57:34;18.40;99.90
52643;DHT22;38531;53.296;6.614;2022-09-09T17:04:16;18.30;99.90
52643;DHT22;38531;53.296;6.614;2022-09-09T17:06:47;18.20;99.90
52643;DHT22;38531;53.296;6.614;2022-09-09T17:09:15;18.20;99.90
52643;DHT22;38531;53.296;6.614;2022-09-09T17:11:44;18.20;99.90
52643;DHT22;38531;53.296;6.614;2022-09-09T17:14:21;18.10;99.90
52643;DHT22;38531;53.296;6.614;2022-09-09T17:16:49;17.40;99.90
52643;DHT22;38531;53.296;6.614;2022-09-09T17:19:34;18.00;99.90
52643;DHT22;38531;53.296;6.614;2022-09-09T17:22:42;17.80;99.90
52643;DHT22;38531;53.296;6.614;2022-09-09T17:25:37;17.90;99.90
52643;DHT22;38531;53.296;6.614;2022-09-09T17:29:06;17.80;99.90
52643;DHT22;38531;53.296;6.614;2022-09-09T17:49:23;17.50;99.90
52643;DHT22;38531;53.296;6.614;2022-09-09T17:52:07;17.50;99.90
52643;DHT22;38531;53.296;6.614;2022-09-09T18:05:00;17.40;99.90
52643;DHT22;38531;53.296;6.614;2022-09-09T18:07:55;17.30;99.90
52643;DHT22;38531;53.296;6.614;2022-09-09T18:14:10;17.30;99.90
52643;DHT22;38531;53.296;6.614;2022-09-09T18:16:58;17.30;99.90
52643;DHT22;38531;53.296;6.614;2022-09-09T18:27:10;17.10;99.90
52643;DHT22;38531;53.296;6.614;2022-09-09T18:29:51;17.10;99.90
52643;DHT22;38531;53.296;6.614;2022-09-09T18:32:49;17.10;99.90
52643;DHT22;38531;53.296;6.614;2022-09-09T18:35:40;17.30;99.90
52643;DHT22;38531;53.296;6.614;2022-09-09T19:06:15;16.80;99.90
52643;DHT22;38531;53.296;6.614;2022-09-09T19:21:55;16.70;99.90
52643;DHT22;38531;53.296;6.614;2022-09-09T19:38:56;16.70;99.90
52643;DHT22;38531;53.296;6.614;2022-09-09T20:09:32;16.50;99.90
52643;DHT22;38531;53.296;6.614;2022-09-09T20:24:12;16.40;99.90
52643;DHT22;38531;53.296;6.614;2022-09-09T20:26:50;16.40;99.90
52643;DHT22;38531;53.296;6.614;2022-09-09T20:29:28;16.40;99.90
52643;DHT22;38531;53.296;6.614;2022-09-09T20:35:48;16.30;99.90
52643;DHT22;38531;53.296;6.614;2022-09-09T20:41:26;16.40;99.90
52643;DHT22;38531;53.296;6.614;2022-09-09T20:44:01;16.20;99.90
52643;DHT22;38531;53.296;6.614;2022-09-09T20:46:42;16.30;99.90
52643;DHT22;38531;53.296;6.614;2022-09-09T20:49:16;16.30;99.90
52643;DHT22;38531;53.296;6.614;2022-09-09T20:52:08;16.20;99.90
52643;DHT22;38531;53.296;6.614;2022-09-09T20:54:37;16.30;99.90
52643;DHT22;38531;53.296;6.614;2022-09-09T20:57:06;16.00;99.90
52643;DHT22;38531;53.296;6.614;2022-09-09T20:59:38;16.20;99.90